Grand Forks Air Force Base Grand Forks US
ICAO: KRDR
IATA: RDR
Category: Medium
Scheduled Services: No

Elevation: 913 ft
TransAlt. 18000 ft.

Airport Communications:
APP/DEP:118.1
ATIS:27.345
CLNC DEL:119.15
GND:119.15
PMSV METRO:34.35
COMD POST:31.1
PTD:37.22
RDO:122.2
RED RIVER TWR:124.9

KRDR Zoom In..

If Map Doesn't Load, Click Here

Runways:

(A) RW 17 length 12351 ft width 150 ft
ILS 111.30 / hdg 174

(B) RW 35 length 12351 ft width 150 ft
ILS 109.90 / hdg 354

Location; KRDR
Day. 21 / Time. 14.56 Zulu
* Altimeter: 30.17
* Temperature: 10° c. 50°f.
* Wind from: 320° Speed 12 kn.
Dewpoint: 06° c.
Visibility: 10 Statute Miles.
Clouds: Clear (automated report).

KRDR 211456Z AUTO 32012KT 10SM CLR 10/06 A3017 RMK AO2 SLP227 T01000058 52032 $


Wind From 320°
Speed 12 kn.

 
 
jpsmedia.com for Web Design worldairports.se 2018   terms of use